LBSFEDSB

Guest
Details From LBSF - Sofia
To EDSB - Karlsruhe Baden Baden
Flight Number -
Tags Generated
Created
Modified
Stats Distance 737 nm / 1,365 km
Max Altitude 0 ft / 0 m
Waypoints 5
Social Downloads 0
Likes 0
Share VATSIM

Download

Looking for another format? Having issues loading an existing format? Contact us
Advertisement - Login to hide

Notes

Generated

Route

LBSF MGV VIW GAGSI EDSB

ID Type Via Altitude Latitude Longitude Leg Dist Tot Dist Heading (true) Name
O LBSF APT - 0 ft / 0 m 42.69826˚ 23.39477˚ - 0 nm - -
MGV NDB - 0 ft / 0 m 44.85339˚ 18.75055˚ 239 nm 239 nm 304° / 301° MCGOVERN NDB
VIW VOR - 0 ft / 0 m 46.69639˚ 13.91464˚ 230 nm 470 nm 300° / 297° VILLACH VOR-DME
GAGSI FIX - 0 ft / 0 m 48.62972˚ 8.46694˚ 248 nm 719 nm 300° / 296° -
O EDSB APT - 0 ft / 0 m 48.76783˚ 8.06994˚ 17 nm 736 nm 298° / 298° -

Altitude Profile

Advertisement - Login to hide

Weather


0- 5 10 15 20 25 30 35+ Temperature / ° C

Clouds and Precipitation
Forecast for 2017-12-12 12:00 UTC. Updated an hour ago

Ground ~20,000 ft ~40,000 ft Winds

LBSF

Details ICAO LBSF (SOF)
Name Sofia
Region Bulgaria
Timezone Europe/Sofia (UTC+2.0)
Stats Elevation 1,741 ft / 531 m (AMSL)
Location 42.697130° 23.416722°
Runways 1
Magnetic Variation 4.933° E

METAR

LBSF 121030Z 09004KT 060V140 CAVOK 07/01 Q1019 NOSIG

Decode

TAF

TAF LBSF 120500Z 1206/1306 VRB04KT CAVOK TEMPO 1206/1207 4000 BR BECMG 1218/1220 4000 BR NSC PROB40 TEMPO 1301/1306 1200 BR SCT007

Decode

Departure Runways

ID Width Length Bearing (true) Bearing (mag) Surface Threshold Offset Overrun Length
09 148 ft / 45 m 11,801 ft / 3,597 m 93.99° 89.06° Asphalt 984 ft / 300 m 525 ft / 160 m
27 148 ft / 45 m 11,801 ft / 3,597 m 274.02° 269.09° Asphalt 0 ft / 0 m 525 ft / 160 m

EDSB

Details ICAO EDSB (FKB)
Name Karlsruhe Baden Baden
Region Germany - Civil
Timezone Europe/Berlin (UTC+1.0)
Stats Elevation 408 ft / 124 m (AMSL)
Location 48.779257° 8.080642°
Runways 1
Magnetic Variation 2.222° E

METAR

EDSB 121020Z 21010KT 9999 FEW035 BKN054 04/01 Q1010

Decode

TAF

TAF EDSB 120500Z 1206/1306 22015G30KT 9999 SCT015 BKN030 BECMG 1209/1212 21007KT

Decode

Destination Runways

ID Width Length Bearing (true) Bearing (mag) Surface Threshold Offset Overrun Length
03 148 ft / 45 m 9,799 ft / 2,987 m 31.69° 29.47° Asphalt 830 ft / 253 m 115 ft / 35 m
21 148 ft / 45 m 9,799 ft / 2,987 m 211.70° 209.48° Asphalt 830 ft / 253 m 115 ft / 35 m

Approach Navaids

Runway Type Ident Frequency Range Bearing (true) Bearing (mag) Slope Elevation
03 Localiser IKBE 109.95 MHz 18 nm / 33 km 31.45° 29.23° - 408 ft / 124 m (AMSL)
03 Glidescope IKBE 109.95 MHz 10 nm / 19 km 31.70° 29.47° 3.00° 456 ft / 139 m (AMSL)
21 Localiser IKBW 108.75 MHz 18 nm / 33 km 211.94° 209.72° - 405 ft / 123 m (AMSL)
21 Glidescope IKBW 108.75 MHz 10 nm / 19 km 211.70° 209.47° 3.00° 408 ft / 124 m (AMSL)